Time;durP1;ratioP1;P1;durP2;ratioP2;P2;SDS_P1;SDS_P2;PMS_P1;PMS_P2;Temp;Humidity;BMP_temperature;BMP_pressure;BME280_temperature;BME280_humidity;BME280_pressure;Samples;Min_cycle;Max_cycle;Signal;HPM_P1;HPM_P2
2023/10/19 00:00:40;;;;;;;41.75;22.65;;;13.30;99.90;;;;;;5054132;28;20100;-79
2023/10/19 00:03:06;;;;;;;40.63;21.35;;;13.30;99.90;;;;;;5071502;28;20024;-79
2023/10/19 00:05:36;;;;;;;37.67;22.60;;;13.30;99.90;;;;;;5071059;28;20171;-81
2023/10/19 00:08:22;;;;;;;35.80;22.05;;;13.30;99.90;;;;;;5071464;28;20059;-82
2023/10/19 00:11:40;;;;;;;49.47;25.10;;;13.40;99.90;;;;;;5071290;28;20016;-82
2023/10/19 00:13:40;;;;;;;46.00;23.67;;;13.40;99.90;;;;;;5056803;28;20123;-81
2023/10/19 00:16:22;;;;;;;39.58;22.98;;;13.40;99.90;;;;;;5053565;28;20100;-82
2023/10/19 00:18:52;;;;;;;45.10;20.77;;;13.50;99.90;;;;;;5071393;28;20036;-82
2023/10/19 00:21:20;;;;;;;40.60;22.33;;;13.30;99.90;;;;;;5074433;28;20029;-81
2023/10/19 00:23:51;;;;;;;45.40;19.90;;;13.40;99.90;;;;;;5058079;28;20458;-83
2023/10/19 00:26:20;;;;;;;40.20;20.95;;;13.30;99.90;;;;;;5075544;28;20129;-84
2023/10/19 00:28:52;;;;;;;44.05;20.63;;;13.40;99.90;;;;;;5057946;28;20028;-83
2023/10/19 00:31:20;;;;;;;40.95;19.00;;;13.40;99.90;;;;;;5073552;28;20016;-82
2023/10/19 00:33:46;;;;;;;36.85;17.77;;;13.30;99.90;;;;;;5073252;28;20443;-81
2023/10/19 00:36:15;;;;;;;36.63;17.85;;;13.30;99.90;;;;;;5073832;28;20070;-79
2023/10/19 00:38:52;;;;;;;33.97;17.65;;;13.30;99.90;;;;;;5054929;28;20386;-83
2023/10/19 00:41:30;;;;;;;31.75;14.55;;;13.40;99.90;;;;;;5073118;28;20096;-82
2023/10/19 00:44:04;;;;;;;27.90;15.13;;;13.20;99.90;;;;;;5072919;28;20126;-84
2023/10/19 00:46:38;;;;;;;27.13;12.13;;;13.20;99.90;;;;;;5073308;28;20039;-84
2023/10/19 00:49:09;;;;;;;23.08;12.02;;;13.30;99.90;;;;;;5055606;28;20436;-84
2023/10/19 00:52:10;;;;;;;24.52;11.13;;;13.20;99.90;;;;;;5055507;28;20024;-83
2023/10/19 00:54:55;;;;;;;25.80;11.98;;;13.20;99.90;;;;;;5074644;28;20049;-80
2023/10/19 00:57:22;;;;;;;20.67;11.52;;;13.30;99.90;;;;;;5076624;28;20183;-81
2023/10/19 00:59:51;;;;;;;22.58;11.15;;;13.30;99.90;;;;;;5076024;28;20017;-79
2023/10/19 01:02:21;;;;;;;25.20;11.07;;;13.10;99.90;;;;;;5073435;28;20024;-80
2023/10/19 01:05:08;;;;;;;17.65;9.65;;;13.20;99.90;;;;;;5073387;28;20032;-82
2023/10/19 01:07:38;;;;;;;23.65;10.27;;;13.10;99.90;;;;;;5075116;28;20024;-85
2023/10/19 01:10:05;;;;;;;27.60;10.80;;;13.30;99.90;;;;;;5076676;28;20033;-82
2023/10/19 01:17:58;;;;;;;19.20;7.13;;;13.20;99.90;;;;;;5076747;28;20029;-83
2023/10/19 01:28:42;;;;;;;17.70;7.95;;;13.10;99.90;;;;;;5075380;28;20032;-82
2023/10/19 01:31:15;;;;;;;16.85;7.07;;;13.10;99.90;;;;;;5074373;28;20048;-80
2023/10/19 01:33:41;;;;;;;19.08;7.07;;;13.00;99.90;;;;;;5073630;28;20171;-80
2023/10/19 01:36:11;;;;;;;12.80;6.85;;;13.20;99.90;;;;;;5074676;28;20043;-80
2023/10/19 01:38:38;;;;;;;16.85;7.38;;;13.10;99.90;;;;;;5074412;28;20028;-81
2023/10/19 01:41:18;;;;;;;19.73;6.95;;;13.10;99.90;;;;;;5056223;28;20120;-79
2023/10/19 01:43:44;;;;;;;17.52;6.82;;;13.20;99.90;;;;;;5071178;28;20032;-77
2023/10/19 01:46:13;;;;;;;13.98;6.35;;;13.00;99.90;;;;;;5071717;28;20037;-77
2023/10/19 01:48:43;;;;;;;11.88;6.38;;;12.90;99.90;;;;;;5071273;28;20074;-78
2023/10/19 01:51:11;;;;;;;14.88;6.97;;;13.00;99.90;;;;;;5071829;28;20060;-77
2023/10/19 01:53:44;;;;;;;15.48;6.32;;;12.90;99.90;;;;;;5071405;28;20095;-76
2023/10/19 01:56:11;;;;;;;12.25;6.18;;;13.10;99.90;;;;;;5071727;28;20032;-77
2023/10/19 01:58:37;;;;;;;12.75;6.43;;;12.90;99.90;;;;;;5072041;28;20063;-78
2023/10/19 02:03:36;;;;;;;11.10;5.60;;;12.90;99.90;;;;;;5076025;28;20047;-77
2023/10/19 02:06:21;;;;;;;14.02;6.07;;;13.00;99.90;;;;;;5076326;28;20052;-77
2023/10/19 02:08:50;;;;;;;16.38;7.03;;;12.90;99.90;;;;;;5071693;28;20033;-78
2023/10/19 02:11:20;;;;;;;18.98;6.63;;;12.90;99.90;;;;;;5073974;28;20063;-78
2023/10/19 02:13:46;;;;;;;12.18;6.65;;;12.80;99.90;;;;;;5071324;28;20087;-76
2023/10/19 02:16:15;;;;;;;17.55;6.90;;;12.90;99.90;;;;;;5072950;28;20185;-78
2023/10/19 02:18:43;;;;;;;18.40;7.05;;;13.00;99.90;;;;;;5072251;28;20025;-79
2023/10/19 02:21:11;;;;;;;11.65;7.07;;;13.00;99.90;;;;;;5074431;28;20033;-77
2023/10/19 02:23:39;;;;;;;16.90;7.50;;;13.00;99.90;;;;;;5071631;28;20082;-77
2023/10/19 02:26:05;;;;;;;18.23;7.13;;;12.90;99.90;;;;;;5073330;28;20475;-77
2023/10/19 02:28:31;;;;;;;19.30;7.38;;;13.00;99.90;;;;;;5073640;28;20044;-78
2023/10/19 02:31:14;;;;;;;20.08;7.95;;;12.90;99.90;;;;;;5070309;28;20514;-77
2023/10/19 02:33:40;;;;;;;19.02;6.45;;;13.00;99.90;;;;;;5070832;28;20075;-78
2023/10/19 02:36:12;;;;;;;12.68;6.80;;;12.80;99.90;;;;;;5071631;28;20086;-78
2023/10/19 02:38:39;;;;;;;;;;;13.00;99.90;;;;;;5074269;28;20410;-78
2023/10/19 02:41:04;;;;;;;18.33;6.85;;;13.00;99.90;;;;;;5069835;28;19905;-78
2023/10/19 02:43:32;;;;;;;16.20;6.78;;;12.80;99.90;;;;;;5070705;28;20127;-78
2023/10/19 02:45:59;;;;;;;16.02;6.22;;;12.80;99.90;;;;;;5071055;28;20040;-78
2023/10/19 02:48:25;;;;;;;13.40;6.32;;;12.90;99.90;;;;;;5073752;28;20367;-77
2023/10/19 02:50:51;;;;;;;16.15;6.60;;;12.80;99.90;;;;;;5071464;28;20025;-77
2023/10/19 02:53:19;;;;;;;12.32;6.20;;;12.80;99.90;;;;;;5072768;28;20064;-78
2023/10/19 02:55:44;;;;;;;12.27;5.97;;;12.90;99.90;;;;;;5070948;28;20036;-79
2023/10/19 02:58:11;;;;;;;16.67;5.60;;;12.80;99.90;;;;;;5070603;28;20352;-77
2023/10/19 03:00:39;;;;;;;12.30;5.80;;;12.90;99.90;;;;;;5052600;28;20051;-78
2023/10/19 03:03:06;;;;;;;13.00;5.95;;;12.90;99.90;;;;;;5054888;28;20020;-79
2023/10/19 03:05:34;;;;;;;11.52;5.88;;;13.00;99.90;;;;;;5052919;28;20036;-78
2023/10/19 03:08:05;;;;;;;13.52;6.28;;;12.90;99.90;;;;;;5071498;28;20025;-77
2023/10/19 03:10:41;;;;;;;12.40;6.20;;;12.90;99.90;;;;;;5070936;28;20043;-78
2023/10/19 03:13:14;;;;;;;11.48;7.40;;;13.00;99.90;;;;;;5072066;28;20048;-78
2023/10/19 03:15:42;;;;;;;;;;;12.80;99.90;;;;;;5071131;28;20060;-78
2023/10/19 03:18:08;;;;;;;12.82;6.00;;;12.80;99.90;;;;;;5070893;28;19904;-78
2023/10/19 03:20:38;;;;;;;14.07;6.55;;;12.80;99.90;;;;;;5071307;28;20051;-78
2023/10/19 03:23:03;;;;;;;14.98;6.47;;;12.80;99.90;;;;;;5071646;28;20590;-78
2023/10/19 03:28:35;;;;;;;9.60;6.07;;;12.90;99.90;;;;;;4991367;28;20081;-79
2023/10/19 03:31:00;;;;;;;13.13;6.80;;;13.00;99.90;;;;;;5056465;28;20071;-78
2023/10/19 03:33:28;;;;;;;13.15;6.90;;;13.00;99.90;;;;;;5070307;28;20064;-78
2023/10/19 03:35:54;;;;;;;11.15;7.30;;;13.00;99.90;;;;;;5069899;28;20083;-78
2023/10/19 03:38:22;;;;;;;13.13;7.25;;;13.00;99.90;;;;;;5070497;28;20479;-78
2023/10/19 03:40:52;;;;;;;11.52;7.10;;;12.90;99.90;;;;;;5069964;28;20035;-79
2023/10/19 03:43:23;;;;;;;11.82;7.47;;;13.00;99.90;;;;;;5072441;28;20054;-79
2023/10/19 03:45:52;;;;;;;10.05;6.60;;;12.90;99.90;;;;;;5051707;28;20387;-79
2023/10/19 03:48:37;;;;;;;12.70;6.78;;;12.90;99.90;;;;;;5071442;28;20060;-77
2023/10/19 03:51:03;;;;;;;16.65;8.38;;;13.10;99.90;;;;;;5071205;28;20058;-78
2023/10/19 03:53:30;;;;;;;18.40;8.68;;;12.90;99.90;;;;;;5053754;28;20115;-78
2023/10/19 03:55:56;;;;;;;17.00;8.40;;;13.00;99.90;;;;;;5072851;28;20040;-78
2023/10/19 03:58:22;;;;;;;14.82;7.88;;;13.00;99.90;;;;;;5075618;28;20027;-78
2023/10/19 04:00:49;;;;;;;13.23;8.00;;;13.00;99.90;;;;;;5057119;28;20171;-79
2023/10/19 04:03:18;;;;;;;13.10;8.48;;;13.00;99.90;;;;;;5074370;28;20106;-78
2023/10/19 04:05:49;;;;;;;18.45;8.75;;;12.90;99.90;;;;;;5075992;28;20049;-79
2023/10/19 04:08:19;;;;;;;14.63;9.10;;;13.00;99.90;;;;;;5075430;28;20336;-79
2023/10/19 04:11:08;;;;;;;14.30;8.75;;;12.90;99.90;;;;;;5075490;28;20074;-79
2023/10/19 04:13:31;;;;;;;12.27;8.13;;;13.10;99.90;;;;;;5073756;28;20501;-80
2023/10/19 04:15:57;;;;;;;15.25;8.40;;;13.10;99.90;;;;;;5057093;28;20029;-79
2023/10/19 04:18:25;;;;;;;11.32;8.15;;;13.10;99.90;;;;;;5075201;28;20372;-80
2023/10/19 04:23:21;;;;;;;10.70;7.75;;;13.20;99.90;;;;;;5076288;28;20031;-79
2023/10/19 04:25:47;;;;;;;11.77;7.57;;;13.00;99.90;;;;;;5077234;28;20036;-79
2023/10/19 04:28:14;;;;;;;14.60;8.02;;;13.00;99.90;;;;;;5075669;28;20103;-79
2023/10/19 04:30:40;;;;;;;14.88;8.25;;;13.10;99.90;;;;;;5073925;28;20051;-79
2023/10/19 04:33:09;;;;;;;14.85;8.30;;;13.10;99.90;;;;;;5074600;28;20035;-79
2023/10/19 04:35:37;;;;;;;13.23;7.97;;;13.20;99.90;;;;;;5078869;28;20032;-79
2023/10/19 04:38:06;;;;;;;12.07;7.32;;;13.00;99.90;;;;;;5073125;28;20048;-78
2023/10/19 04:40:32;;;;;;;15.07;8.65;;;13.20;99.90;;;;;;5073749;28;20035;-78
2023/10/19 04:42:58;;;;;;;13.27;7.75;;;13.20;99.90;;;;;;5073398;28;20100;-78
2023/10/19 04:45:23;;;;;;;11.57;8.15;;;13.10;99.90;;;;;;5072943;28;20118;-77
2023/10/19 04:47:53;;;;;;;10.60;7.80;;;13.20;99.90;;;;;;5072869;28;20392;-78
2023/10/19 04:50:18;;;;;;;12.48;8.50;;;13.10;99.90;;;;;;5072572;28;20483;-77
2023/10/19 04:52:44;;;;;;;9.73;6.75;;;13.20;99.90;;;;;;5072711;28;20031;-77
2023/10/19 04:55:10;;;;;;;10.43;6.50;;;13.20;99.90;;;;;;5072492;28;20131;-76
2023/10/19 04:57:36;;;;;;;14.60;8.52;;;13.20;99.90;;;;;;5072555;28;20036;-77
2023/10/19 05:00:03;;;;;;;18.48;9.13;;;13.20;99.90;;;;;;5072191;28;20025;-77
2023/10/19 05:02:29;;;;;;;14.13;8.82;;;13.10;99.90;;;;;;5072707;28;20035;-77
2023/10/19 05:04:55;;;;;;;16.15;8.43;;;13.10;99.90;;;;;;5072066;28;20029;-78
2023/10/19 05:07:21;;;;;;;11.18;7.85;;;13.10;99.90;;;;;;5071287;28;20035;-77
2023/10/19 05:09:47;;;;;;;9.57;7.25;;;13.10;99.90;;;;;;5072928;28;20036;-77
2023/10/19 05:12:14;;;;;;;12.52;7.57;;;13.20;99.90;;;;;;5071777;28;20130;-78
2023/10/19 05:14:41;;;;;;;8.88;6.13;;;13.10;99.90;;;;;;5072680;28;20059;-77
2023/10/19 05:17:09;;;;;;;12.35;8.10;;;13.10;99.90;;;;;;5072070;28;20082;-78
2023/10/19 05:19:36;;;;;;;12.15;8.07;;;13.20;99.90;;;;;;5072944;28;20115;-78
2023/10/19 05:22:04;;;;;;;13.35;7.50;;;13.00;99.90;;;;;;5073191;28;20108;-77
2023/10/19 05:24:29;;;;;;;8.45;6.10;;;13.00;99.90;;;;;;5073897;28;20507;-77
2023/10/19 05:26:56;;;;;;;10.85;6.55;;;13.10;99.90;;;;;;5074427;28;20137;-77
2023/10/19 05:29:23;;;;;;;11.35;6.07;;;13.10;99.90;;;;;;5073786;28;20043;-76
2023/10/19 05:31:53;;;;;;;10.02;5.75;;;13.10;99.90;;;;;;5073221;28;20028;-76
2023/10/19 05:34:22;;;;;;;9.93;6.07;;;13.00;99.90;;;;;;5073821;28;20024;-76
2023/10/19 05:36:48;;;;;;;10.55;5.78;;;13.10;99.90;;;;;;5054268;28;20085;-77
2023/10/19 05:39:15;;;;;;;5.90;4.43;;;13.00;99.90;;;;;;5072560;28;20025;-78
2023/10/19 05:41:41;;;;;;;11.30;5.32;;;13.00;99.90;;;;;;5074627;28;20044;-77
2023/10/19 05:44:07;;;;;;;9.10;4.90;;;13.00;99.90;;;;;;5071264;28;20108;-77
2023/10/19 05:46:32;;;;;;;12.65;6.03;;;13.00;99.90;;;;;;5071932;28;20098;-78
2023/10/19 05:48:58;;;;;;;13.80;6.50;;;13.20;99.90;;;;;;5071425;28;20032;-78
2023/10/19 05:51:24;;;;;;;13.15;6.07;;;13.10;99.90;;;;;;5071519;28;20029;-78
2023/10/19 05:53:50;;;;;;;10.48;5.40;;;13.00;99.90;;;;;;5071805;28;20091;-78
2023/10/19 05:56:17;;;;;;;10.00;4.82;;;13.10;99.90;;;;;;5071321;28;20093;-78
2023/10/19 05:58:44;;;;;;;9.57;5.50;;;13.00;99.90;;;;;;5053808;28;20234;-78
2023/10/19 06:01:10;;;;;;;11.07;5.20;;;13.10;99.90;;;;;;5053062;28;20415;-78
2023/10/19 06:03:35;;;;;;;9.10;4.65;;;13.20;99.90;;;;;;5071290;28;20042;-78
2023/10/19 06:06:01;;;;;;;11.10;4.97;;;13.10;99.90;;;;;;5070782;28;20064;-78
2023/10/19 06:08:28;;;;;;;13.02;5.32;;;13.10;99.90;;;;;;5071836;28;20378;-78
2023/10/19 06:10:55;;;;;;;9.50;4.00;;;13.20;99.90;;;;;;5070930;28;20039;-77
2023/10/19 06:13:21;;;;;;;6.70;3.88;;;13.10;99.90;;;;;;5070842;28;20033;-77
2023/10/19 06:15:48;;;;;;;12.68;5.38;;;13.10;99.90;;;;;;5071024;28;20109;-77
2023/10/19 06:18:14;;;;;;;9.23;5.45;;;13.00;99.90;;;;;;5070259;28;20211;-78
2023/10/19 06:20:44;;;;;;;11.57;5.45;;;13.10;99.90;;;;;;5073467;28;20409;-77
2023/10/19 06:23:11;;;;;;;10.32;4.53;;;13.00;99.90;;;;;;5074718;28;20033;-77
2023/10/19 06:25:38;;;;;;;7.88;4.40;;;13.00;99.90;;;;;;5072696;28;20047;-77
2023/10/19 06:28:05;;;;;;;12.45;5.47;;;13.00;99.90;;;;;;5052612;28;20056;-77
2023/10/19 06:30:31;;;;;;;14.20;6.00;;;13.10;99.90;;;;;;5071856;28;20150;-77
2023/10/19 06:33:01;;;;;;;11.52;5.57;;;13.10;99.90;;;;;;5070758;28;20430;-77
2023/10/19 06:35:28;;;;;;;15.57;6.50;;;13.10;99.90;;;;;;5070952;28;20115;-76
2023/10/19 06:37:57;;;;;;;15.13;7.32;;;13.10;99.90;;;;;;5053186;28;20097;-76
2023/10/19 06:40:23;;;;;;;16.75;6.82;;;13.20;99.90;;;;;;5070405;28;20027;-78
2023/10/19 06:42:49;;;;;;;17.33;7.85;;;13.20;99.90;;;;;;5052710;28;20479;-77
2023/10/19 06:45:18;;;;;;;14.50;7.05;;;13.10;99.90;;;;;;5070219;28;20090;-77
2023/10/19 06:47:46;;;;;;;18.13;7.30;;;13.10;99.90;;;;;;5052440;28;20028;-77
2023/10/19 06:50:15;;;;;;;12.25;6.75;;;13.20;99.90;;;;;;5069930;28;20098;-77
2023/10/19 06:52:42;;;;;;;15.45;6.68;;;13.20;99.90;;;;;;5052571;28;20032;-78
2023/10/19 06:55:13;;;;;;;19.48;8.35;;;13.10;99.90;;;;;;5070354;28;20048;-79
2023/10/19 06:57:43;;;;;;;16.05;8.02;;;13.20;99.90;;;;;;5070435;28;20036;-77
2023/10/19 07:00:14;;;;;;;16.77;8.98;;;13.10;99.90;;;;;;5069669;28;20039;-76
2023/10/19 07:02:41;;;;;;;13.18;6.43;;;13.20;99.90;;;;;;5070563;28;20024;-76
2023/10/19 07:05:10;;;;;;;15.88;6.35;;;13.30;99.90;;;;;;5070009;28;20126;-76
2023/10/19 07:07:39;;;;;;;11.57;6.00;;;13.10;99.90;;;;;;5052470;28;20028;-77
2023/10/19 07:10:09;;;;;;;10.77;5.53;;;13.20;99.90;;;;;;5071835;28;20025;-75
2023/10/19 07:12:36;;;;;;;7.25;4.50;;;13.20;99.90;;;;;;5071067;28;20032;-75
2023/10/19 07:15:09;;;;;;;10.95;4.60;;;13.10;99.90;;;;;;5072591;28;20041;-75
2023/10/19 07:17:37;;;;;;;12.40;4.38;;;13.20;99.90;;;;;;5073501;28;20103;-76
2023/10/19 07:20:08;;;;;;;9.63;4.20;;;13.30;99.90;;;;;;5078986;28;20087;-76
2023/10/19 07:22:37;;;;;;;11.70;4.50;;;13.30;99.90;;;;;;5070241;28;20032;-76
2023/10/19 07:25:05;;;;;;;8.18;4.40;;;13.20;99.90;;;;;;5069411;28;20132;-77
2023/10/19 07:27:33;;;;;;;9.85;4.53;;;13.20;99.90;;;;;;5070368;28;20115;-75
2023/10/19 07:30:09;;;;;;;13.07;4.95;;;13.30;99.90;;;;;;5071281;28;20409;-75
2023/10/19 07:32:35;;;;;;;9.63;4.35;;;13.40;99.90;;;;;;5075069;28;20020;-76
2023/10/19 07:35:01;;;;;;;9.77;4.32;;;13.40;99.90;;;;;;5077232;28;20040;-76
2023/10/19 07:37:28;;;;;;;10.82;4.38;;;13.40;99.90;;;;;;5074807;28;20082;-77
2023/10/19 07:39:56;;;;;;;11.52;4.82;;;13.40;99.90;;;;;;5073818;28;20500;-77
2023/10/19 07:42:23;;;;;;;10.05;4.28;;;13.30;99.90;;;;;;5073305;28;20831;-79
2023/10/19 07:44:52;;;;;;;11.60;5.57;;;13.40;99.90;;;;;;5056778;28;20120;-85
2023/10/19 07:47:17;;;;;;;11.35;4.75;;;13.50;99.90;;;;;;5074013;28;20024;-80
2023/10/19 07:49:43;;;;;;;11.35;4.63;;;13.40;99.90;;;;;;5074201;28;20032;-78
2023/10/19 07:52:10;;;;;;;9.77;4.50;;;13.40;99.90;;;;;;5055550;28;20058;-77
2023/10/19 07:54:39;;;;;;;12.02;4.82;;;13.40;99.90;;;;;;5074350;28;20136;-77
2023/10/19 07:57:08;;;;;;;8.52;4.63;;;13.50;99.90;;;;;;5074831;28;20035;-77
2023/10/19 07:59:34;;;;;;;10.68;4.40;;;13.50;99.90;;;;;;5073813;28;20065;-75
2023/10/19 08:02:03;;;;;;;13.55;5.32;;;13.50;99.90;;;;;;5073770;28;20021;-77
2023/10/19 08:04:29;;;;;;;8.20;5.07;;;13.50;99.90;;;;;;5073675;28;20108;-77
2023/10/19 08:06:55;;;;;;;10.82;5.82;;;13.40;99.90;;;;;;5074272;28;20037;-77
2023/10/19 08:09:26;;;;;;;13.13;6.13;;;13.60;99.90;;;;;;5073465;28;20032;-77
2023/10/19 08:11:55;;;;;;;9.82;4.95;;;13.50;99.90;;;;;;5055486;28;20384;-77
2023/10/19 08:14:26;;;;;;;12.82;6.43;;;13.50;99.90;;;;;;5073094;28;20025;-78
2023/10/19 08:16:53;;;;;;;12.15;5.95;;;13.50;99.90;;;;;;5073881;28;20028;-78
2023/10/19 08:19:19;;;;;;;12.50;6.00;;;13.60;99.90;;;;;;5073010;28;20020;-78
2023/10/19 08:21:45;;;;;;;12.02;5.30;;;13.60;99.90;;;;;;5073487;28;20031;-78
2023/10/19 08:24:17;;;;;;;14.82;5.93;;;13.60;99.90;;;;;;5072867;28;20024;-79
2023/10/19 08:26:46;;;;;;;17.73;6.15;;;13.60;99.90;;;;;;5073831;28;20032;-78
2023/10/19 08:29:12;;;;;;;8.10;4.45;;;13.70;99.90;;;;;;5073008;28;20077;-79
2023/10/19 08:31:47;;;;;;;10.13;4.82;;;13.70;99.90;;;;;;5073479;28;20029;-79
2023/10/19 08:34:13;;;;;;;16.38;6.45;;;13.60;99.90;;;;;;5073018;28;20020;-79
2023/10/19 08:36:39;;;;;;;10.88;4.90;;;13.60;99.90;;;;;;5055595;28;20032;-79
2023/10/19 08:39:12;;;;;;;9.32;5.13;;;13.60;99.90;;;;;;5073135;28;20047;-79
2023/10/19 08:41:40;;;;;;;9.82;4.80;;;13.70;99.90;;;;;;5072966;28;20456;-78
2023/10/19 08:44:10;;;;;;;9.57;5.00;;;13.80;99.90;;;;;;5072251;28;20399;-79
2023/10/19 08:46:45;;;;;;;8.02;4.25;;;13.90;99.90;;;;;;5072998;28;20033;-77
2023/10/19 08:49:15;;;;;;;6.47;4.10;;;13.90;99.90;;;;;;5072308;28;20024;-78
2023/10/19 08:51:45;;;;;;;6.05;3.65;;;13.90;99.90;;;;;;5072792;28;20471;-76
2023/10/19 08:54:14;;;;;;;7.25;3.67;;;13.90;99.90;;;;;;5072025;28;20426;-77
2023/10/19 08:56:41;;;;;;;5.78;3.22;;;13.80;99.90;;;;;;5072369;28;20108;-76
2023/10/19 08:59:10;;;;;;;7.47;3.13;;;13.90;99.90;;;;;;5072161;28;20021;-77
2023/10/19 09:01:37;;;;;;;3.75;2.55;;;14.00;99.90;;;;;;5054230;28;20356;-76
2023/10/19 09:04:05;;;;;;;3.72;2.50;;;13.90;99.90;;;;;;5072330;28;20427;-76
2023/10/19 09:06:41;;;;;;;4.35;2.47;;;13.90;99.90;;;;;;5054349;28;20518;-76
2023/10/19 09:09:09;;;;;;;4.22;2.78;;;13.90;99.90;;;;;;5071832;28;20432;-77
2023/10/19 09:11:35;;;;;;;7.03;2.85;;;13.90;99.90;;;;;;5072229;28;20379;-76
2023/10/19 09:14:03;;;;;;;4.18;2.50;;;14.00;99.90;;;;;;5072306;28;20166;-77
2023/10/19 09:16:30;;;;;;;4.97;2.42;;;13.90;99.90;;;;;;5071943;28;20120;-78
2023/10/19 09:18:57;;;;;;;6.22;2.83;;;13.90;99.90;;;;;;5072170;28;20326;-77
2023/10/19 09:21:25;;;;;;;6.40;2.90;;;13.80;99.90;;;;;;5071224;28;20028;-76
2023/10/19 09:23:57;;;;;;;6.85;3.47;;;13.90;99.90;;;;;;5071971;28;20167;-77
2023/10/19 09:26:24;;;;;;;6.10;3.00;;;14.00;99.90;;;;;;5072562;28;20032;-78
2023/10/19 09:28:51;;;;;;;6.93;3.00;;;13.90;99.90;;;;;;5073395;28;20051;-78
2023/10/19 09:31:18;;;;;;;5.13;2.45;;;13.90;99.90;;;;;;5071569;28;20025;-78
2023/10/19 09:33:46;;;;;;;6.63;2.47;;;13.90;99.90;;;;;;5072130;28;20091;-78
2023/10/19 09:36:15;;;;;;;6.88;3.17;;;13.90;99.90;;;;;;5072171;28;20164;-77
2023/10/19 09:38:49;;;;;;;4.88;2.60;;;14.00;99.90;;;;;;5073391;28;20113;-76
2023/10/19 09:41:18;;;;;;;8.07;3.53;;;14.10;99.90;;;;;;5070822;28;20024;-77
2023/10/19 09:43:45;;;;;;;6.72;3.13;;;13.90;99.90;;;;;;5071426;28;20025;-76
2023/10/19 09:46:16;;;;;;;4.97;2.33;;;14.10;99.90;;;;;;5070756;28;20034;-77
2023/10/19 09:48:47;;;;;;;7.03;2.42;;;14.00;99.90;;;;;;5056136;28;20031;-77
2023/10/19 09:51:14;;;;;;;4.03;2.67;;;14.10;99.90;;;;;;5070598;28;20025;-78
2023/10/19 09:53:40;;;;;;;6.57;2.90;;;14.10;99.90;;;;;;5048722;28;20049;-78
2023/10/19 09:56:09;;;;;;;5.75;2.13;;;14.10;99.90;;;;;;5054116;28;20164;-77
2023/10/19 09:58:46;;;;;;;6.25;2.67;;;14.20;99.90;;;;;;5033877;28;20021;-78
2023/10/19 10:01:12;;;;;;;5.97;2.35;;;14.40;99.90;;;;;;5053060;28;20125;-77
2023/10/19 10:03:46;;;;;;;3.72;2.33;;;14.20;99.90;;;;;;5039149;28;20025;-77
2023/10/19 10:06:16;;;;;;;4.20;1.92;;;14.20;99.90;;;;;;5053969;28;20040;-77
2023/10/19 10:08:45;;;;;;;3.47;2.05;;;14.40;99.90;;;;;;5053745;28;20547;-77
2023/10/19 10:11:29;;;;;;;4.35;2.20;;;14.30;99.90;;;;;;5050878;28;20029;-77
2023/10/19 10:13:56;;;;;;;4.15;1.80;;;14.50;99.90;;;;;;5051660;28;20539;-76
2023/10/19 10:16:24;;;;;;;3.92;1.60;;;14.50;99.90;;;;;;5050808;28;20029;-76
2023/10/19 10:18:53;;;;;;;2.80;1.50;;;14.60;99.90;;;;;;5051553;28;20029;-76
2023/10/19 10:21:21;;;;;;;3.05;1.25;;;14.60;99.90;;;;;;5034480;28;20340;-76
2023/10/19 10:23:55;;;;;;;3.17;1.50;;;14.60;99.90;;;;;;5053795;28;20032;-77
2023/10/19 10:26:26;;;;;;;3.65;1.42;;;14.80;99.90;;;;;;5050705;28;20037;-78
2023/10/19 10:29:19;;;;;;;4.50;1.50;;;14.60;99.90;;;;;;5051687;28;20029;-78
2023/10/19 10:31:46;;;;;;;;;;;14.80;99.90;;;;;;5051630;28;20025;-77
2023/10/19 10:34:30;;;;;;;3.33;1.30;;;14.80;99.90;;;;;;5050722;28;19909;-78
2023/10/19 10:37:08;;;;;;;2.92;1.38;;;14.80;99.90;;;;;;5051131;28;20035;-78
2023/10/19 10:39:39;;;;;;;4.50;1.88;;;14.90;99.90;;;;;;5032776;28;20078;-76
2023/10/19 10:42:09;;;;;;;2.88;1.50;;;14.90;99.90;;;;;;5050692;28;20392;-76
2023/10/19 10:44:40;;;;;;;5.45;1.25;;;15.00;99.90;;;;;;5051743;28;20025;-76
2023/10/19 10:47:11;;;;;;;4.00;1.65;;;15.00;99.90;;;;;;5051513;28;20396;-76
2023/10/19 10:50:00;;;;;;;2.63;1.33;;;15.20;99.90;;;;;;5033641;28;20021;-78
2023/10/19 10:52:33;;;;;;;3.75;1.70;;;15.40;99.90;;;;;;5034024;28;20459;-76
2023/10/19 10:55:13;;;;;;;2.15;1.60;;;15.20;99.90;;;;;;5066634;28;20403;-77
2023/10/19 10:57:40;;;;;;;4.55;1.90;;;15.20;99.90;;;;;;5071339;28;20440;-77
2023/10/19 11:00:09;;;;;;;3.90;2.40;;;15.30;99.90;;;;;;5053283;28;20378;-77
2023/10/19 11:02:42;;;;;;;4.63;2.20;;;15.20;99.90;;;;;;5071576;28;20024;-77
2023/10/19 11:05:12;;;;;;;3.20;2.10;;;15.30;99.90;;;;;;5071148;28;20542;-77
2023/10/19 11:08:01;;;;;;;4.75;2.15;;;15.30;99.90;;;;;;5073727;28;20029;-78
2023/10/19 11:10:28;;;;;;;3.25;2.00;;;15.60;99.90;;;;;;5069859;28;20021;-78
2023/10/19 11:13:00;;;;;;;2.97;1.95;;;15.50;99.90;;;;;;5070167;28;20020;-78
2023/10/19 11:15:27;;;;;;;5.28;2.72;;;15.70;99.90;;;;;;5070084;28;20115;-77
2023/10/19 11:17:52;;;;;;;6.10;2.83;;;15.60;99.90;;;;;;5069958;28;20108;-79
2023/10/19 11:20:23;;;;;;;10.50;2.90;;;15.60;99.90;;;;;;5069245;28;20551;-78
2023/10/19 11:22:50;;;;;;;6.25;2.40;;;15.70;99.90;;;;;;5070015;28;20043;-78
2023/10/19 11:25:22;;;;;;;7.72;2.03;;;15.70;99.90;;;;;;5069248;28;20029;-79
2023/10/19 11:27:48;;;;;;;4.07;1.88;;;15.60;99.90;;;;;;5069678;28;20089;-78
2023/10/19 11:30:22;;;;;;;5.40;1.98;;;15.60;99.90;;;;;;5069419;28;20373;-79
2023/10/19 11:32:48;;;;;;;3.95;1.63;;;15.60;99.90;;;;;;5069948;28;20035;-79
2023/10/19 11:35:14;;;;;;;3.13;1.13;;;15.60;99.90;;;;;;5069139;28;20395;-78
2023/10/19 11:37:49;;;;;;;4.80;1.20;;;15.60;99.90;;;;;;5070058;28;20050;-77
2023/10/19 11:40:15;;;;;;;2.42;1.75;;;15.70;99.90;;;;;;5069014;28;20104;-77
2023/10/19 11:42:42;;;;;;;2.35;1.27;;;15.70;99.90;;;;;;5070297;28;20220;-77
2023/10/19 11:45:08;;;;;;;3.55;1.30;;;15.90;99.90;;;;;;5052057;28;20025;-77
2023/10/19 11:47:34;;;;;;;3.20;1.92;;;16.00;99.90;;;;;;5051137;28;20356;-77
2023/10/19 11:50:00;;;;;;;5.30;1.90;;;16.00;99.90;;;;;;5070189;28;20451;-77
2023/10/19 11:52:27;;;;;;;2.95;1.50;;;16.00;99.90;;;;;;5069741;28;20035;-77
2023/10/19 11:54:54;;;;;;;2.38;1.20;;;16.10;99.90;;;;;;5070163;28;20048;-78
2023/10/19 11:57:19;;;;;;;2.40;1.02;;;16.10;99.90;;;;;;5051279;28;20352;-78
2023/10/19 11:59:45;;;;;;;3.55;1.00;;;16.30;99.90;;;;;;5070231;28;20040;-78
2023/10/19 12:02:11;;;;;;;1.52;0.60;;;16.30;99.90;;;;;;5070141;28;20039;-78
2023/10/19 12:04:37;;;;;;;1.13;0.70;;;16.30;99.90;;;;;;5070103;28;20021;-78
2023/10/19 12:07:03;;;;;;;2.10;0.80;;;16.50;99.90;;;;;;5070240;28;20032;-78
2023/10/19 12:09:29;;;;;;;1.73;1.05;;;16.50;99.90;;;;;;5052121;28;20032;-78
2023/10/19 12:11:56;;;;;;;5.63;1.30;;;16.50;99.90;;;;;;5069670;28;20040;-78
2023/10/19 12:14:22;;;;;;;1.33;0.60;;;16.50;99.90;;;;;;5069171;28;20029;-78
2023/10/19 12:16:48;;;;;;;3.33;1.30;;;16.60;99.90;;;;;;5072276;28;20035;-78
2023/10/19 12:19:15;;;;;;;3.85;1.30;;;16.80;99.90;;;;;;5073280;28;20025;-80
2023/10/19 12:21:44;;;;;;;3.40;1.40;;;16.80;99.90;;;;;;5073422;28;20020;-79
2023/10/19 12:24:11;;;;;;;3.50;1.20;;;16.90;99.90;;;;;;5073313;28;20095;-78
2023/10/19 12:26:38;;;;;;;1.88;0.70;;;17.00;99.90;;;;;;5072370;28;20041;-79
2023/10/19 12:29:07;;;;;;;4.60;1.10;;;17.10;99.90;;;;;;5073241;28;20047;-79
2023/10/19 12:31:32;;;;;;;2.60;1.10;;;17.20;99.90;;;;;;5072677;28;20032;-80
2023/10/19 12:33:58;;;;;;;4.45;0.90;;;17.30;99.90;;;;;;5073378;28;20469;-80
2023/10/19 12:36:34;;;;;;;2.40;0.88;;;17.40;99.90;;;;;;5072833;28;20084;-79
2023/10/19 12:39:00;;;;;;;2.80;1.30;;;17.50;99.90;;;;;;5073648;28;20040;-78
2023/10/19 12:41:27;;;;;;;3.78;1.02;;;17.60;99.90;;;;;;5072946;28;20113;-78
2023/10/19 12:44:07;;;;;;;3.40;0.80;;;17.60;99.90;;;;;;5073667;28;20031;-79
2023/10/19 12:46:36;;;;;;;2.08;0.70;;;17.60;99.90;;;;;;5074462;28;20329;-79
2023/10/19 12:49:13;;;;;;;3.35;0.95;;;17.70;99.90;;;;;;5056353;28;20036;-79
2023/10/19 12:51:42;;;;;;;7.53;1.17;;;17.70;99.90;;;;;;5073491;28;20150;-79
2023/10/19 12:54:10;;;;;;;4.45;0.70;;;17.70;99.90;;;;;;5055176;28;20548;-79
2023/10/19 12:56:36;;;;;;;2.55;0.90;;;17.70;99.90;;;;;;5072178;28;20097;-80
2023/10/19 12:59:01;;;;;;;5.22;1.20;;;17.80;99.90;;;;;;5072461;28;20463;-80
2023/10/19 13:01:28;;;;;;;3.42;0.98;;;17.80;99.90;;;;;;5072526;28;20089;-79
2023/10/19 13:03:54;;;;;;;3.50;1.00;;;17.80;99.90;;;;;;5073802;28;20031;-78
2023/10/19 13:06:23;;;;;;;2.72;0.95;;;17.80;99.90;;;;;;5072878;28;20391;-80
2023/10/19 13:08:49;;;;;;;4.93;1.30;;;17.80;99.90;;;;;;5074467;28;20028;-79
2023/10/19 13:11:15;;;;;;;5.13;1.02;;;17.70;99.90;;;;;;5072994;28;20238;-79